Time;durP1;ratioP1;P1;durP2;ratioP2;P2;SDS_P1;SDS_P2;PMS_P1;PMS_P2;Temp;Humidity;BMP_temperature;BMP_pressure;BME280_temperature;BME280_humidity;BME280_pressure;Samples;Min_cycle;Max_cycle;Signal;HPM_P1;HPM_P2
2022/06/25 00:00:36;;;;;;;11.00;9.90;;;20.30;99.90;;;;;;5009362;28;20113;-71
2022/06/25 00:03:01;;;;;;;11.68;10.50;;;20.40;99.90;;;;;;5011430;28;20060;-71
2022/06/25 00:05:27;;;;;;;11.80;10.70;;;20.40;99.90;;;;;;5010887;28;20037;-71
2022/06/25 00:07:52;;;;;;;11.95;10.73;;;20.30;99.90;;;;;;5009815;28;20069;-71
2022/06/25 00:10:18;;;;;;;12.23;11.05;;;20.30;99.90;;;;;;5018134;28;20096;-71
2022/06/25 00:12:44;;;;;;;13.48;12.07;;;20.30;99.90;;;;;;5012309;28;20052;-71
2022/06/25 00:15:10;;;;;;;13.75;12.38;;;20.30;99.90;;;;;;5000801;28;20076;-71
2022/06/25 00:17:36;;;;;;;12.80;11.50;;;20.20;99.90;;;;;;5010545;28;20536;-71
2022/06/25 00:20:06;;;;;;;13.15;11.85;;;20.20;99.90;;;;;;5005983;28;20077;-71
2022/06/25 00:22:31;;;;;;;13.63;12.30;;;20.20;99.90;;;;;;5004058;28;20095;-71
2022/06/25 00:24:57;;;;;;;13.77;12.05;;;20.10;99.90;;;;;;5007497;28;20038;-71
2022/06/25 00:27:23;;;;;;;13.95;12.60;;;20.10;99.90;;;;;;5010709;28;20045;-71
2022/06/25 00:29:49;;;;;;;15.65;14.15;;;20.10;99.90;;;;;;5010338;28;20121;-71
2022/06/25 00:32:15;;;;;;;13.93;12.73;;;20.10;99.90;;;;;;5010242;28;20408;-71
2022/06/25 00:34:41;;;;;;;15.03;13.60;;;20.00;99.90;;;;;;5001830;28;20052;-71
2022/06/25 00:37:07;;;;;;;15.75;14.25;;;20.00;99.90;;;;;;5010215;28;20049;-71
2022/06/25 00:39:34;;;;;;;14.18;12.80;;;19.90;99.90;;;;;;5008420;28;20042;-71
2022/06/25 00:42:00;;;;;;;14.88;13.48;;;19.90;99.90;;;;;;5010586;28;20049;-71
2022/06/25 00:44:30;;;;;;;15.10;13.70;;;20.00;99.90;;;;;;4993832;28;20386;-71
2022/06/25 00:46:55;;;;;;;14.38;13.18;;;19.90;99.90;;;;;;4996723;28;20038;-71
2022/06/25 00:49:21;;;;;;;15.35;14.00;;;19.80;99.90;;;;;;5006326;28;20684;-71
2022/06/25 00:51:49;;;;;;;14.43;13.10;;;19.90;99.90;;;;;;5010932;28;20080;-71
2022/06/25 00:54:16;;;;;;;14.98;13.60;;;19.90;99.90;;;;;;5005644;28;20267;-71
2022/06/25 00:56:49;;;;;;;16.67;15.10;;;19.80;99.90;;;;;;5008842;28;20046;-71
2022/06/25 00:59:16;;;;;;;17.52;15.80;;;19.80;99.90;;;;;;5005083;28;20775;-71
2022/06/25 01:01:42;;;;;;;15.63;14.23;;;19.80;99.90;;;;;;5010095;28;20056;-71
2022/06/25 01:04:08;;;;;;;15.93;14.63;;;19.80;99.90;;;;;;5010125;28;20046;-71
2022/06/25 01:06:34;;;;;;;15.88;14.48;;;19.80;99.90;;;;;;5011078;28;20056;-71
2022/06/25 01:09:00;;;;;;;15.63;14.13;;;19.70;99.90;;;;;;5005432;28;20042;-71
2022/06/25 01:11:26;;;;;;;15.63;14.23;;;19.80;99.90;;;;;;4995400;28;20046;-71
2022/06/25 01:13:52;;;;;;;15.00;13.75;;;19.70;99.90;;;;;;5006530;28;20064;-71
2022/06/25 01:16:19;;;;;;;17.58;15.82;;;19.70;99.90;;;;;;4996770;28;20210;-70
2022/06/25 01:18:47;;;;;;;16.05;14.48;;;19.70;99.90;;;;;;5007009;28;20082;-71
2022/06/25 01:21:13;;;;;;;15.40;14.10;;;19.70;99.90;;;;;;5003341;28;20053;-71
2022/06/25 01:23:40;;;;;;;16.15;14.75;;;19.60;99.90;;;;;;5005753;28;20089;-71
2022/06/25 01:26:06;;;;;;;15.13;13.80;;;19.60;99.90;;;;;;5009281;28;20042;-71
2022/06/25 01:28:32;;;;;;;15.23;13.93;;;19.60;99.90;;;;;;5004494;28;20073;-71
2022/06/25 01:30:57;;;;;;;15.85;14.45;;;19.60;99.90;;;;;;5010334;28;20080;-71
2022/06/25 01:33:23;;;;;;;15.75;14.45;;;19.50;99.90;;;;;;5000782;28;20053;-71
2022/06/25 01:35:49;;;;;;;14.80;13.50;;;19.50;99.90;;;;;;5001722;28;20117;-71
2022/06/25 01:38:15;;;;;;;15.50;14.20;;;19.50;99.90;;;;;;4995831;28;20156;-71
2022/06/25 01:40:40;;;;;;;15.85;14.35;;;19.50;99.90;;;;;;5009082;28;20511;-70
2022/06/25 01:43:06;;;;;;;15.25;13.88;;;19.40;99.90;;;;;;4992805;28;20042;-71
2022/06/25 01:45:37;;;;;;;16.05;14.45;;;19.40;99.90;;;;;;5007510;28;20066;-71
2022/06/25 01:48:04;;;;;;;15.77;14.38;;;19.30;99.90;;;;;;5000489;28;20042;-71
2022/06/25 01:50:31;;;;;;;16.45;14.95;;;19.30;99.90;;;;;;5009576;28;20129;-71
2022/06/25 01:52:57;;;;;;;16.27;14.73;;;19.20;99.90;;;;;;5006593;28;20057;-71
2022/06/25 01:55:23;;;;;;;15.57;13.95;;;19.10;99.90;;;;;;5006632;28;20301;-71
2022/06/25 01:57:49;;;;;;;16.73;15.32;;;19.20;99.90;;;;;;5007806;28;20085;-71
2022/06/25 02:00:21;;;;;;;17.25;15.65;;;19.10;99.90;;;;;;5004626;28;20383;-71
2022/06/25 02:02:46;;;;;;;15.57;14.18;;;19.10;99.90;;;;;;5008236;28;20528;-71
2022/06/25 02:05:14;;;;;;;15.88;14.35;;;19.20;99.90;;;;;;5008218;28;20128;-71
2022/06/25 02:07:39;;;;;;;;;;;19.20;99.90;;;;;;5008884;28;20481;-71
2022/06/25 02:10:06;;;;;;;15.87;14.50;;;19.10;99.90;;;;;;5006812;28;19929;-71
2022/06/25 02:12:31;;;;;;;15.75;14.38;;;19.10;99.90;;;;;;5007537;28;20041;-71
2022/06/25 02:14:57;;;;;;;15.88;14.43;;;19.10;99.90;;;;;;5005142;28;20053;-71
2022/06/25 02:17:23;;;;;;;15.90;14.50;;;19.10;99.90;;;;;;5005261;28;20108;-71
2022/06/25 02:19:49;;;;;;;15.90;14.50;;;19.10;99.90;;;;;;5004904;28;20050;-71
2022/06/25 02:22:15;;;;;;;16.67;15.07;;;19.10;99.90;;;;;;5005624;28;20108;-71
2022/06/25 02:24:42;;;;;;;16.25;14.75;;;19.10;99.90;;;;;;5004492;28;20050;-71
2022/06/25 02:27:08;;;;;;;17.45;15.90;;;19.10;99.90;;;;;;5007380;28;20045;-71
2022/06/25 02:29:34;;;;;;;17.90;16.10;;;19.00;99.90;;;;;;5004805;28;20481;-71
2022/06/25 02:31:59;;;;;;;17.00;15.40;;;19.00;99.90;;;;;;5008591;28;20044;-71
2022/06/25 02:34:25;;;;;;;16.60;15.10;;;19.00;99.90;;;;;;5004992;28;20046;-71
2022/06/25 02:36:51;;;;;;;16.77;15.32;;;19.00;99.90;;;;;;5009115;28;20045;-71
2022/06/25 02:39:17;;;;;;;17.33;15.77;;;19.00;99.90;;;;;;5008105;28;20480;-71
2022/06/25 02:41:43;;;;;;;17.48;15.88;;;18.90;99.90;;;;;;5007801;28;20089;-71
2022/06/25 02:44:09;;;;;;;15.88;14.32;;;18.90;99.90;;;;;;5006717;28;20481;-71
2022/06/25 02:46:34;;;;;;;17.30;15.70;;;18.90;99.90;;;;;;5008922;28;20080;-71
2022/06/25 02:49:01;;;;;;;15.90;14.52;;;18.90;99.90;;;;;;5007181;28;20117;-71
2022/06/25 02:51:27;;;;;;;17.05;15.50;;;18.90;99.90;;;;;;5007796;28;20034;-71
2022/06/25 02:53:53;;;;;;;17.33;15.77;;;18.80;99.90;;;;;;5002997;28;20092;-71
2022/06/25 02:59:03;;;;;;;18.05;16.35;;;18.80;99.90;;;;;;5008851;28;20050;-71
2022/06/25 03:01:29;;;;;;;18.30;16.70;;;18.80;99.90;;;;;;5007084;28;20060;-71
2022/06/25 03:03:56;;;;;;;19.40;17.50;;;18.80;99.90;;;;;;5003513;28;20054;-72
2022/06/25 03:06:22;;;;;;;18.98;17.27;;;18.80;99.90;;;;;;5007720;28;20473;-71
2022/06/25 03:08:48;;;;;;;19.33;17.63;;;18.80;99.90;;;;;;5006900;28;20504;-71
2022/06/25 03:11:15;;;;;;;18.63;16.75;;;18.80;99.90;;;;;;4993898;28;20050;-71
2022/06/25 03:13:41;;;;;;;18.07;16.50;;;18.80;99.90;;;;;;4997777;28;20099;-71
2022/06/25 03:16:08;;;;;;;18.02;16.17;;;18.70;99.90;;;;;;5008343;28;20412;-71
2022/06/25 03:18:35;;;;;;;17.83;16.17;;;18.80;99.90;;;;;;5004352;28;20038;-71
2022/06/25 03:21:01;;;;;;;17.67;15.95;;;18.70;99.90;;;;;;5007779;28;20126;-71
2022/06/25 03:23:27;;;;;;;16.17;14.68;;;18.70;99.90;;;;;;5004545;28;20133;-71
2022/06/25 03:25:53;;;;;;;16.48;14.98;;;18.70;99.90;;;;;;5006669;28;20100;-71
2022/06/25 03:28:19;;;;;;;16.77;15.07;;;18.70;99.90;;;;;;5001855;28;20038;-71
2022/06/25 03:30:45;;;;;;;17.13;15.63;;;18.70;99.90;;;;;;5006323;28;20042;-71
2022/06/25 03:33:12;;;;;;;16.98;15.30;;;18.60;99.90;;;;;;5003849;28;20049;-71
2022/06/25 03:35:37;;;;;;;16.98;15.35;;;18.60;99.90;;;;;;5007177;28;20689;-71
2022/06/25 03:38:03;;;;;;;16.45;15.05;;;18.60;99.90;;;;;;5006870;28;20164;-71
2022/06/25 03:40:29;;;;;;;16.52;15.13;;;18.60;99.90;;;;;;5005182;28;20048;-71
2022/06/25 03:42:54;;;;;;;16.05;14.55;;;18.60;99.90;;;;;;5003867;28;20050;-71
2022/06/25 03:45:20;;;;;;;15.38;13.93;;;18.60;99.90;;;;;;5007123;28;20073;-71
2022/06/25 03:47:50;;;;;;;15.75;14.25;;;18.60;99.90;;;;;;5007101;28;20132;-71
2022/06/25 03:50:17;;;;;;;14.60;13.20;;;18.60;99.90;;;;;;5005650;28;20104;-71
2022/06/25 03:52:43;;;;;;;14.50;13.10;;;18.60;99.90;;;;;;5006240;28;20112;-71
2022/06/25 03:55:08;;;;;;;14.35;13.07;;;18.60;99.90;;;;;;5004306;28;20042;-71
2022/06/25 03:57:35;;;;;;;14.15;12.85;;;18.60;99.90;;;;;;5005088;28;20774;-71
2022/06/25 04:00:02;;;;;;;14.13;12.55;;;18.60;99.90;;;;;;5007435;28;20073;-72
2022/06/25 04:02:28;;;;;;;12.65;11.45;;;18.70;99.90;;;;;;5006404;28;20088;-71
2022/06/25 04:04:54;;;;;;;13.00;11.32;;;18.70;99.90;;;;;;5007599;28;20668;-71
2022/06/25 04:07:19;;;;;;;14.02;12.73;;;18.70;99.90;;;;;;4998704;28;20120;-71
2022/06/25 04:09:45;;;;;;;13.07;11.90;;;18.70;99.90;;;;;;5005174;28;20133;-71
2022/06/25 04:12:11;;;;;;;12.55;11.45;;;18.70;99.90;;;;;;5004140;28;20164;-71
2022/06/25 04:14:37;;;;;;;13.07;11.88;;;18.70;99.90;;;;;;5005831;28;20042;-71
2022/06/25 04:17:04;;;;;;;13.10;11.80;;;18.70;99.90;;;;;;5003824;28;20069;-71
2022/06/25 04:19:29;;;;;;;11.80;10.45;;;18.70;99.90;;;;;;5002675;28;20038;-71
2022/06/25 04:21:55;;;;;;;10.60;9.50;;;18.80;99.90;;;;;;4987453;28;20582;-72
2022/06/25 04:24:21;;;;;;;10.57;9.48;;;18.80;99.90;;;;;;5000873;28;20042;-71
2022/06/25 04:26:46;;;;;;;11.40;9.63;;;18.80;99.90;;;;;;5006332;28;20037;-71
2022/06/25 04:29:12;;;;;;;11.60;9.18;;;18.80;99.90;;;;;;5002370;28;20069;-71
2022/06/25 04:31:38;;;;;;;11.32;9.23;;;18.90;99.90;;;;;;5007369;28;20057;-72
2022/06/25 04:34:04;;;;;;;10.60;8.43;;;18.90;99.90;;;;;;5004448;28;20065;-71
2022/06/25 04:36:30;;;;;;;10.23;8.90;;;18.90;99.90;;;;;;5006075;28;20080;-71
2022/06/25 04:38:56;;;;;;;11.30;8.75;;;18.90;99.90;;;;;;5009054;28;21045;-71
2022/06/25 04:41:22;;;;;;;11.40;8.55;;;19.00;99.90;;;;;;4999113;28;20423;-71
2022/06/25 04:43:48;;;;;;;9.57;8.50;;;19.00;99.90;;;;;;5011303;28;20117;-71
2022/06/25 04:46:14;;;;;;;9.57;8.40;;;19.00;99.90;;;;;;5010708;28;20042;-71
2022/06/25 04:48:40;;;;;;;10.27;7.82;;;19.10;99.90;;;;;;5006812;28;20492;-71
2022/06/25 04:51:06;;;;;;;10.07;8.32;;;19.10;99.90;;;;;;5008806;28;20054;-71
2022/06/25 04:53:32;;;;;;;9.10;8.23;;;19.20;99.90;;;;;;5007938;28;20056;-72
2022/06/25 04:55:58;;;;;;;9.73;7.43;;;19.20;99.90;;;;;;5008735;28;20381;-71
2022/06/25 04:58:23;;;;;;;8.73;7.88;;;19.20;99.90;;;;;;5009760;28;20049;-72
2022/06/25 05:00:49;;;;;;;9.38;7.88;;;19.30;99.90;;;;;;5005023;28;20060;-72
2022/06/25 05:03:15;;;;;;;10.57;8.10;;;19.40;99.90;;;;;;5007227;28;20058;-71
2022/06/25 05:05:41;;;;;;;12.20;7.85;;;19.40;99.90;;;;;;5025667;28;20112;-71
2022/06/25 05:08:06;;;;;;;11.50;7.40;;;19.40;99.90;;;;;;5006391;28;20081;-71
2022/06/25 05:10:32;;;;;;;9.43;7.30;;;19.40;99.90;;;;;;4998338;28;20046;-72
2022/06/25 05:13:13;;;;;;;10.52;7.10;;;19.50;99.90;;;;;;5008693;28;20141;-72
2022/06/25 05:15:40;;;;;;;7.65;6.45;;;19.60;99.90;;;;;;5007264;28;20057;-71
2022/06/25 05:18:07;;;;;;;7.60;6.70;;;19.60;99.90;;;;;;5010244;28;20038;-71
2022/06/25 05:20:36;;;;;;;8.05;6.90;;;19.60;99.90;;;;;;5006183;28;20109;-72
2022/06/25 05:23:02;;;;;;;9.88;6.75;;;19.70;99.90;;;;;;5005667;28;20045;-72
2022/06/25 05:25:28;;;;;;;7.45;6.40;;;19.70;99.90;;;;;;5007363;28;20041;-71
2022/06/25 05:27:53;;;;;;;6.93;6.18;;;19.70;99.90;;;;;;5006474;28;20050;-72
2022/06/25 05:30:19;;;;;;;7.72;6.38;;;19.80;99.90;;;;;;5007355;28;20042;-71
2022/06/25 05:32:44;;;;;;;8.35;6.40;;;19.80;99.90;;;;;;5007384;28;20123;-72
2022/06/25 05:35:10;;;;;;;7.78;6.88;;;19.90;99.90;;;;;;5008099;28;20042;-71
2022/06/25 05:37:36;;;;;;;8.88;6.70;;;19.90;99.90;;;;;;5007856;28;20186;-71
2022/06/25 05:40:01;;;;;;;8.20;6.30;;;19.90;99.90;;;;;;5005892;28;20513;-71
2022/06/25 05:42:27;;;;;;;9.90;6.70;;;20.00;99.90;;;;;;5009239;28;20056;-72
2022/06/25 05:44:53;;;;;;;9.18;6.82;;;20.10;99.90;;;;;;5008469;28;20044;-72
2022/06/25 05:47:18;;;;;;;8.10;6.50;;;20.10;99.90;;;;;;5006171;28;20459;-71
2022/06/25 05:49:44;;;;;;;6.75;6.05;;;20.10;99.90;;;;;;5007448;28;20080;-72
2022/06/25 05:52:09;;;;;;;10.40;6.43;;;20.20;99.90;;;;;;5006618;28;20132;-72
2022/06/25 05:54:35;;;;;;;7.38;6.15;;;20.20;99.90;;;;;;5006441;28;20046;-72
2022/06/25 05:57:01;;;;;;;11.00;6.78;;;20.30;99.90;;;;;;5002906;28;20198;-75
2022/06/25 05:59:26;;;;;;;9.15;6.85;;;20.30;99.90;;;;;;5004529;28;20045;-70
2022/06/25 06:01:52;;;;;;;8.88;7.00;;;20.40;99.90;;;;;;5000473;28;20131;-70
2022/06/25 06:04:18;;;;;;;9.98;6.70;;;20.40;99.90;;;;;;5003590;28;20037;-70
2022/06/25 06:06:43;;;;;;;7.95;6.28;;;20.40;99.90;;;;;;5006811;28;20049;-71
2022/06/25 06:09:09;;;;;;;7.88;6.03;;;20.50;99.90;;;;;;5007063;28;20049;-70
2022/06/25 06:11:35;;;;;;;7.55;6.75;;;20.60;99.90;;;;;;5006999;28;20049;-70
2022/06/25 06:14:00;;;;;;;8.45;7.30;;;20.60;99.90;;;;;;5003846;28;20507;-70
2022/06/25 06:16:26;;;;;;;9.82;7.30;;;20.70;99.90;;;;;;5006374;28;20046;-73
2022/06/25 06:18:51;;;;;;;7.85;7.07;;;20.80;99.90;;;;;;5003076;28;20057;-72
2022/06/25 06:21:17;;;;;;;8.68;7.18;;;20.80;99.90;;;;;;5003148;28;20045;-73
2022/06/25 06:23:42;;;;;;;10.25;7.20;;;20.90;99.90;;;;;;5005980;28;20489;-72
2022/06/25 06:26:08;;;;;;;8.30;6.78;;;20.90;99.90;;;;;;5005348;28;20046;-72
2022/06/25 06:28:34;;;;;;;8.35;7.22;;;21.00;99.90;;;;;;5006756;28;20156;-73
2022/06/25 06:30:59;;;;;;;12.23;7.28;;;21.00;99.90;;;;;;5005134;28;20104;-73
2022/06/25 06:33:25;;;;;;;10.27;7.45;;;21.00;99.90;;;;;;5003503;28;20141;-73
2022/06/25 06:35:50;;;;;;;8.18;7.38;;;21.00;99.90;;;;;;5005351;28;20057;-73
2022/06/25 06:38:16;;;;;;;10.18;6.32;;;21.10;99.90;;;;;;5005125;28;20041;-72
2022/06/25 06:40:42;;;;;;;10.07;5.90;;;21.10;99.90;;;;;;5008184;28;20054;-73
2022/06/25 06:43:07;;;;;;;8.20;5.80;;;21.20;99.90;;;;;;5007822;28;20053;-73
2022/06/25 06:45:33;;;;;;;9.45;6.00;;;21.30;99.90;;;;;;5006727;28;20073;-73
2022/06/25 06:47:58;;;;;;;7.80;6.05;;;21.40;99.90;;;;;;5002836;28;20046;-72
2022/06/25 06:50:24;;;;;;;7.65;5.57;;;21.50;99.90;;;;;;5005751;28;20046;-73
2022/06/25 06:52:50;;;;;;;7.05;4.93;;;21.50;99.90;;;;;;5004140;28;20053;-72
2022/06/25 06:55:15;;;;;;;9.07;5.00;;;21.60;99.90;;;;;;4999486;28;20053;-73
2022/06/25 06:57:41;;;;;;;8.05;5.18;;;21.60;99.90;;;;;;5004081;28;20045;-72
2022/06/25 07:00:07;;;;;;;7.90;5.95;;;21.70;99.90;;;;;;4999595;28;20471;-73
2022/06/25 07:02:34;;;;;;;7.25;5.07;;;21.80;99.90;;;;;;5004674;28;20558;-72
2022/06/25 07:04:59;;;;;;;5.63;4.25;;;21.80;99.90;;;;;;5004095;28;20041;-72
2022/06/25 07:07:25;;;;;;;6.32;4.68;;;21.90;99.90;;;;;;4993180;28;20124;-72
2022/06/25 07:09:51;;;;;;;7.80;4.30;;;21.90;99.90;;;;;;4999943;28;20124;-73
2022/06/25 07:12:17;;;;;;;8.38;4.20;;;21.90;99.90;;;;;;5004551;28;20053;-73
2022/06/25 07:14:42;;;;;;;6.82;4.38;;;22.10;99.90;;;;;;5006260;28;20034;-73
2022/06/25 07:17:08;;;;;;;6.90;3.92;;;22.10;99.90;;;;;;5002663;28;20067;-74
2022/06/25 07:19:34;;;;;;;7.32;3.50;;;22.10;99.90;;;;;;5005822;28;20544;-73
2022/06/25 07:22:00;;;;;;;6.40;3.70;;;22.20;99.90;;;;;;4995235;28;20042;-72
2022/06/25 07:24:26;;;;;;;7.38;3.85;;;22.30;99.90;;;;;;5006525;28;20635;-72
2022/06/25 07:26:51;;;;;;;5.70;4.00;;;22.30;99.90;;;;;;5001428;28;20131;-76
2022/06/25 07:29:17;;;;;;;7.82;3.70;;;22.30;99.90;;;;;;4999358;28;20078;-82
2022/06/25 07:31:43;;;;;;;6.95;4.00;;;22.30;99.90;;;;;;5002528;28;20129;-74
2022/06/25 07:34:09;;;;;;;5.75;3.38;;;22.40;99.90;;;;;;5006343;28;20529;-73
2022/06/25 07:36:35;;;;;;;6.07;4.07;;;22.40;99.90;;;;;;5005664;28;20432;-74
2022/06/25 07:39:02;;;;;;;7.60;4.07;;;22.50;99.90;;;;;;5006455;28;20053;-74
2022/06/25 07:41:30;;;;;;;6.43;3.60;;;22.60;99.90;;;;;;5007249;28;20057;-73
2022/06/25 07:43:55;;;;;;;6.45;3.70;;;22.70;99.90;;;;;;5009442;28;20064;-73
2022/06/25 07:46:21;;;;;;;6.57;3.83;;;22.70;99.90;;;;;;5005500;28;20125;-73
2022/06/25 07:48:47;;;;;;;6.93;3.30;;;22.80;99.90;;;;;;5007439;28;20034;-72
2022/06/25 07:54:00;;;;;;;7.20;4.28;;;22.90;99.90;;;;;;5000170;28;20054;-72
2022/06/25 07:56:25;;;;;;;6.63;4.22;;;23.00;99.90;;;;;;5006244;28;20527;-72
2022/06/25 07:58:51;;;;;;;7.18;3.63;;;23.10;99.90;;;;;;5003874;28;20081;-72
2022/06/25 08:01:17;;;;;;;6.05;3.20;;;23.10;99.90;;;;;;5004177;28;20517;-68
2022/06/25 08:03:43;;;;;;;7.13;3.65;;;23.20;99.90;;;;;;5009350;28;20488;-69
2022/06/25 08:06:10;;;;;;;7.47;3.55;;;23.30;99.90;;;;;;5007042;28;20477;-68
2022/06/25 08:08:35;;;;;;;;;;;23.30;99.90;;;;;;5011383;28;20041;-71
2022/06/25 08:11:01;;;;;;;6.57;3.93;;;23.30;99.90;;;;;;5007629;28;19943;-72
2022/06/25 08:13:27;;;;;;;5.68;3.53;;;23.30;99.90;;;;;;5006042;28;20064;-73
2022/06/25 08:15:54;;;;;;;5.57;3.45;;;23.40;99.90;;;;;;5007007;28;20050;-72
2022/06/25 08:18:21;;;;;;;7.53;3.80;;;23.40;99.90;;;;;;5011419;28;20052;-72
2022/06/25 08:20:47;;;;;;;6.85;3.47;;;23.50;99.90;;;;;;5003621;28;20104;-72
2022/06/25 08:23:12;;;;;;;7.28;3.65;;;23.50;99.90;;;;;;5011495;28;20046;-73
2022/06/25 08:25:38;;;;;;;6.75;3.13;;;23.60;99.90;;;;;;5003600;28;20100;-73
2022/06/25 08:28:04;;;;;;;7.57;3.38;;;23.80;99.90;;;;;;5004610;28;20132;-72
2022/06/25 08:30:29;;;;;;;9.25;3.75;;;23.80;99.90;;;;;;5010167;28;20412;-73
2022/06/25 08:32:55;;;;;;;5.88;3.47;;;23.80;99.90;;;;;;5009863;28;20046;-72
2022/06/25 08:35:22;;;;;;;6.25;3.90;;;23.90;99.90;;;;;;5001969;28;20053;-73
2022/06/25 08:37:49;;;;;;;4.72;3.92;;;24.00;99.90;;;;;;5005494;28;20393;-73
2022/06/25 08:40:20;;;;;;;5.55;4.05;;;24.00;99.90;;;;;;5003477;28;20038;-73
2022/06/25 08:42:49;;;;;;;6.53;3.90;;;24.10;99.90;;;;;;5000383;28;20049;-73
2022/06/25 08:45:17;;;;;;;4.72;3.88;;;24.20;99.90;;;;;;5008267;28;20841;-72
2022/06/25 08:47:46;;;;;;;6.35;4.03;;;24.30;99.90;;;;;;5011498;28;20512;-73
2022/06/25 08:50:14;;;;;;;7.50;3.55;;;24.30;99.90;;;;;;5009072;28;20628;-73
2022/06/25 08:52:43;;;;;;;6.80;3.45;;;24.40;99.90;;;;;;5004836;28;20073;-71
2022/06/25 08:55:11;;;;;;;6.63;3.40;;;24.50;99.90;;;;;;5007768;28;20042;-70
2022/06/25 08:57:38;;;;;;;6.97;4.00;;;24.60;99.90;;;;;;5010236;28;20069;-71
2022/06/25 09:00:04;;;;;;;;;;;24.60;99.90;;;;;;5011491;28;20117;-71
2022/06/25 09:02:29;;;;;;;5.88;3.80;;;24.60;99.90;;;;;;5009302;28;20055;-71
2022/06/25 09:04:55;;;;;;;6.05;3.65;;;24.50;99.90;;;;;;5008111;28;20041;-69
2022/06/25 09:07:21;;;;;;;7.53;3.25;;;24.40;99.90;;;;;;5007846;28;20061;-73
2022/06/25 09:09:50;;;;;;;3.87;3.23;;;24.30;99.90;;;;;;5008841;28;20489;-72
2022/06/25 09:12:17;;;;;;;6.45;3.42;;;24.30;99.90;;;;;;5007850;28;20060;-73
2022/06/25 09:14:44;;;;;;;5.00;3.08;;;24.40;99.90;;;;;;5012094;28;20096;-73
2022/06/25 09:17:12;;;;;;;5.20;3.28;;;24.40;99.90;;;;;;5008706;28;20057;-73
2022/06/25 09:19:38;;;;;;;7.70;3.70;;;24.40;99.90;;;;;;5010523;28;20100;-73
2022/06/25 09:22:06;;;;;;;5.53;3.10;;;24.50;99.90;;;;;;5010707;28;20489;-73
2022/06/25 09:24:58;;;;;;;5.53;3.45;;;24.50;99.90;;;;;;5008975;28;20089;-73
2022/06/25 09:27:33;;;;;;;5.47;3.40;;;24.50;99.90;;;;;;5007012;28;20591;-73
2022/06/25 09:30:10;;;;;;;6.70;2.97;;;24.50;99.90;;;;;;5011770;28;20049;-73
2022/06/25 09:33:01;;;;;;;5.30;3.00;;;24.60;99.90;;;;;;5008091;28;20048;-72
2022/06/25 09:35:36;;;;;;;4.90;2.85;;;24.70;99.90;;;;;;5011795;28;20048;-72
2022/06/25 09:38:14;;;;;;;6.35;2.97;;;24.70;99.90;;;;;;5010754;28;20152;-73
2022/06/25 09:40:53;;;;;;;4.60;3.00;;;24.80;99.90;;;;;;5011649;28;20041;-73
2022/06/25 09:43:27;;;;;;;6.07;2.72;;;24.90;99.90;;;;;;5010939;28;20038;-72
2022/06/25 09:46:04;;;;;;;6.47;3.33;;;24.90;99.90;;;;;;5008429;28;20048;-73
2022/06/25 09:48:31;;;;;;;6.05;3.17;;;24.80;99.90;;;;;;5009682;28;20501;-72
2022/06/25 09:51:14;;;;;;;8.00;2.97;;;24.70;99.90;;;;;;5009079;28;20053;-72
2022/06/25 09:53:48;;;;;;;5.40;2.60;;;24.60;99.90;;;;;;5009892;28;20149;-73
2022/06/25 09:56:19;;;;;;;4.65;2.90;;;24.60;99.90;;;;;;5009717;28;20058;-73
2022/06/25 09:58:47;;;;;;;6.53;3.15;;;24.70;99.90;;;;;;5009422;28;20184;-73
2022/06/25 10:01:18;;;;;;;5.65;2.90;;;24.80;99.90;;;;;;5009449;28;20097;-73
2022/06/25 10:03:46;;;;;;;6.40;2.60;;;24.90;99.90;;;;;;5009073;28;20068;-73
2022/06/25 10:06:16;;;;;;;5.28;2.22;;;24.90;99.90;;;;;;5008818;28;20046;-72
2022/06/25 10:08:54;;;;;;;6.82;2.60;;;24.90;99.90;;;;;;5009654;28;20050;-70
2022/06/25 10:11:25;;;;;;;6.40;2.40;;;24.80;99.90;;;;;;5007370;28;20034;-72
2022/06/25 10:13:51;;;;;;;5.00;2.33;;;24.80;99.90;;;;;;5002104;28;20049;-72
2022/06/25 10:16:18;;;;;;;4.63;2.28;;;24.70;99.90;;;;;;5008582;28;20528;-73
2022/06/25 10:18:44;;;;;;;4.07;2.47;;;24.80;99.90;;;;;;5006312;28;20077;-72
2022/06/25 10:21:12;;;;;;;4.83;2.00;;;24.90;99.90;;;;;;5007965;28;20087;-72
2022/06/25 10:23:39;;;;;;;5.05;2.08;;;25.00;99.90;;;;;;5002636;28;20585;-72
2022/06/25 10:26:05;;;;;;;4.22;2.03;;;25.10;99.90;;;;;;5001725;28;20049;-72
2022/06/25 10:28:34;;;;;;;4.55;2.17;;;25.20;99.90;;;;;;5007808;28;20050;-72
2022/06/25 10:31:12;;;;;;;5.57;2.10;;;25.40;99.90;;;;;;5002404;28;20119;-71
2022/06/25 10:34:02;;;;;;;5.10;2.42;;;25.50;99.90;;;;;;5004068;28;20041;-72
2022/06/25 10:36:48;;;;;;;7.22;2.08;;;25.70;99.90;;;;;;4999812;28;20046;-70
2022/06/25 10:39:22;;;;;;;2.85;1.80;;;25.70;99.90;;;;;;5006723;28;20050;-72
2022/06/25 10:45:27;;;;;;;4.90;2.20;;;25.80;99.90;;;;;;5006813;28;20042;-71
2022/06/25 10:47:56;;;;;;;4.05;1.80;;;26.10;99.90;;;;;;5007628;28;20104;-71
2022/06/25 10:50:22;;;;;;;5.63;2.10;;;26.20;99.90;;;;;;5006925;28;20053;-71
2022/06/25 10:53:03;;;;;;;4.53;1.90;;;26.40;99.90;;;;;;5008574;28;20044;-71
2022/06/25 10:55:39;;;;;;;3.58;1.50;;;26.50;99.90;;;;;;5008410;28;20088;-71
2022/06/25 10:58:16;;;;;;;4.32;1.77;;;26.60;99.20;;;;;;5000599;28;20465;-71
2022/06/25 11:00:49;;;;;;;6.50;2.10;;;26.60;99.20;;;;;;5001713;28;20553;-72
2022/06/25 11:03:16;;;;;;;3.78;1.65;;;26.70;98.70;;;;;;5007386;28;20062;-72
2022/06/25 11:05:42;;;;;;;;;;;26.80;98.30;;;;;;5007878;28;20034;-72
2022/06/25 11:08:09;;;;;;;6.88;1.70;;;26.90;99.20;;;;;;5008999;28;19925;-72
2022/06/25 11:10:35;;;;;;;3.83;1.80;;;26.90;99.90;;;;;;5006468;28;20057;-72
2022/06/25 11:13:03;;;;;;;4.07;2.03;;;26.90;98.20;;;;;;5007744;28;20089;-72
2022/06/25 11:15:43;;;;;;;5.78;1.90;;;26.80;98.10;;;;;;5008828;28;20038;-71
2022/06/25 11:18:10;;;;;;;2.83;1.60;;;26.80;99.00;;;;;;5005746;28;20129;-71
2022/06/25 11:20:37;;;;;;;2.78;1.63;;;26.60;97.50;;;;;;5018325;28;20049;-72
2022/06/25 11:23:05;;;;;;;3.25;1.58;;;26.40;98.40;;;;;;5006904;28;20042;-71
2022/06/25 11:28:48;;;;;;;3.05;1.50;;;26.50;99.80;;;;;;5006252;28;20140;-72
2022/06/25 11:31:19;;;;;;;3.42;1.63;;;26.70;99.10;;;;;;5007953;28;20485;-71
2022/06/25 11:33:46;;;;;;;3.25;1.73;;;26.90;99.80;;;;;;5009869;28;20082;-71
2022/06/25 11:36:12;;;;;;;5.90;1.80;;;27.00;98.30;;;;;;5005729;28;20128;-71
2022/06/25 11:38:40;;;;;;;6.07;1.70;;;27.10;97.60;;;;;;5006886;28;20458;-71
2022/06/25 11:41:05;;;;;;;3.22;1.50;;;27.10;97.90;;;;;;5008747;28;20041;-71
2022/06/25 11:43:34;;;;;;;5.53;1.70;;;27.10;96.80;;;;;;5004135;28;20056;-72
2022/06/25 11:46:00;;;;;;;3.42;1.60;;;27.10;97.20;;;;;;5003782;28;20077;-71
2022/06/25 11:48:27;;;;;;;3.65;1.65;;;27.10;97.50;;;;;;5008107;28;20154;-73
2022/06/25 11:50:54;;;;;;;3.70;1.73;;;27.10;97.90;;;;;;5003902;28;20045;-73
2022/06/25 11:53:20;;;;;;;5.10;1.58;;;27.20;97.50;;;;;;5003714;28;20052;-73
2022/06/25 11:56:12;;;;;;;2.90;1.80;;;27.10;96.00;;;;;;5005293;28;20294;-73
2022/06/25 11:58:41;;;;;;;2.53;1.50;;;27.10;94.40;;;;;;5001919;28;20042;-73
2022/06/25 12:01:07;;;;;;;2.28;1.42;;;27.20;95.60;;;;;;5000122;28;20185;-73
2022/06/25 12:03:33;;;;;;;4.77;1.50;;;27.30;96.80;;;;;;5005500;28;20113;-74
2022/06/25 12:06:00;;;;;;;5.13;1.52;;;27.40;97.90;;;;;;4987808;28;20061;-76
2022/06/25 12:08:27;;;;;;;4.47;1.58;;;27.60;95.70;;;;;;4988251;28;20043;-75
2022/06/25 12:10:54;;;;;;;;;;;27.70;95.40;;;;;;4988869;28;20122;-75
2022/06/25 12:13:25;;;;;;;;;;;27.80;97.30;;;;;;5007790;28;19929;-76
2022/06/25 12:15:58;;;;;;;3.95;1.52;;;27.70;96.30;;;;;;5008627;28;20408;-76
2022/06/25 12:18:42;;;;;;;2.40;1.33;;;27.60;91.50;;;;;;5005575;28;20688;-78
2022/06/25 12:21:09;;;;;;;3.90;1.52;;;27.50;94.30;;;;;;5004699;28;20064;-76
2022/06/25 12:23:54;;;;;;;3.22;1.70;;;27.50;95.30;;;;;;5002846;28;20069;-74
2022/06/25 12:26:34;;;;;;;2.95;1.45;;;27.70;90.40;;;;;;5005407;28;20116;-76
2022/06/25 12:29:10;;;;;;;5.28;1.95;;;27.80;93.00;;;;;;5006683;28;20481;-74
2022/06/25 12:31:36;;;;;;;6.18;1.90;;;28.00;97.00;;;;;;4999587;28;20077;-72
2022/06/25 12:34:05;;;;;;;4.32;1.30;;;28.10;91.10;;;;;;4999199;28;20053;-71
2022/06/25 12:36:36;;;;;;;4.22;1.52;;;28.20;89.10;;;;;;4995576;28;20046;-73
2022/06/25 12:39:03;;;;;;;2.72;1.58;;;28.10;80.90;;;;;;4999923;28;20042;-74
2022/06/25 12:41:44;;;;;;;;;;;27.90;82.20;;;;;;4999043;28;20038;-73
2022/06/25 12:44:12;;;;;;;4.30;1.70;;;27.70;86.30;;;;;;5001584;28;20016;-74
2022/06/25 12:46:38;;;;;;;4.68;1.55;;;27.50;91.30;;;;;;5000122;28;20401;-74
2022/06/25 12:49:04;;;;;;;4.77;1.43;;;27.30;90.70;;;;;;4983957;28;20049;-74
2022/06/25 12:51:30;;;;;;;4.00;1.70;;;27.20;90.80;;;;;;4985553;28;20473;-73
2022/06/25 12:53:56;;;;;;;5.07;1.50;;;27.10;91.00;;;;;;5000430;28;20339;-75